createdAt,value
2022-11-21T00:08:02.536Z,22.30
2022-11-21T00:23:03.998Z,22.30
2022-11-21T00:38:05.472Z,22.30
2022-11-21T01:08:23.607Z,22.20
2022-11-21T01:23:25.046Z,22.20
2022-11-21T01:38:26.494Z,22.20
2022-11-21T01:53:27.945Z,22.20
2022-11-21T02:08:29.393Z,22.20
2022-11-21T02:23:30.832Z,22.20
2022-11-21T02:38:32.291Z,22.20
2022-11-21T02:53:33.749Z,22.20
2022-11-21T03:08:35.210Z,22.10
2022-11-21T03:23:36.656Z,22.20
2022-11-21T03:38:38.098Z,22.10
2022-11-21T03:53:39.545Z,22.10
2022-11-21T04:08:40.989Z,22.10
2022-11-21T04:23:42.443Z,22.20
2022-11-21T04:38:43.889Z,22.10
2022-11-21T04:53:45.337Z,22.10
2022-11-21T05:08:51.754Z,22.10
2022-11-21T05:23:55.011Z,22.10
2022-11-21T05:38:56.460Z,22.10
2022-11-21T05:53:57.907Z,22.10
2022-11-21T06:08:59.352Z,22.10
2022-11-21T06:24:00.793Z,22.10
2022-11-21T06:39:02.223Z,22.10
2022-11-21T06:54:03.681Z,22.10
2022-11-21T07:09:31.684Z,22.10
2022-11-21T07:24:26.636Z,22.10
2022-11-21T07:39:28.347Z,22.10
2022-11-21T07:54:29.924Z,22.10
2022-11-21T08:09:34.874Z,22.10
2022-11-21T08:24:38.761Z,22.10
2022-11-21T08:39:40.224Z,22.10
2022-11-21T08:54:41.718Z,22.10
2022-11-21T09:09:43.184Z,22.20
2022-11-21T09:24:44.653Z,22.20
2022-11-21T09:39:46.114Z,22.20
2022-11-21T09:54:48.111Z,22.20
2022-11-21T10:09:49.631Z,22.30
2022-11-21T10:24:51.080Z,22.30
2022-11-21T10:39:57.240Z,22.30
2022-11-21T10:54:59.963Z,22.50
2022-11-21T11:10:01.434Z,22.30
2022-11-21T11:25:02.899Z,22.30
2022-11-21T11:40:04.424Z,22.40
2022-11-21T11:55:05.885Z,22.30
2022-11-21T12:10:07.345Z,22.40
2022-11-21T12:25:08.796Z,22.50
2022-11-21T12:40:10.259Z,22.50
2022-11-21T12:55:11.706Z,22.50
2022-11-21T13:10:13.160Z,22.60
2022-11-21T13:25:14.638Z,22.70
2022-11-21T13:40:16.100Z,22.70
2022-11-21T13:55:17.556Z,22.70
2022-11-21T14:10:19.016Z,22.70
2022-11-21T14:25:20.483Z,22.90
2022-11-21T14:40:21.946Z,22.90
2022-11-21T14:55:30.077Z,22.90
2022-11-21T15:10:32.319Z,22.80
2022-11-21T15:25:34.286Z,22.70
2022-11-21T15:40:35.735Z,22.60
2022-11-21T15:55:37.201Z,22.60
2022-11-21T16:10:38.651Z,22.50
2022-11-21T16:25:40.096Z,22.50
2022-11-21T16:40:41.560Z,22.40
2022-11-21T16:55:43.116Z,22.40
2022-11-21T17:10:44.627Z,22.30
2022-11-21T17:25:47.000Z,22.30
2022-11-21T17:40:48.511Z,22.30
2022-11-21T17:55:49.957Z,22.30
2022-11-21T18:10:51.412Z,22.30
2022-11-21T18:25:52.877Z,22.30
2022-11-21T18:40:54.342Z,22.30
2022-11-21T18:55:57.106Z,22.30
2022-11-21T19:10:58.840Z,22.30
2022-11-21T19:26:01.407Z,22.20
2022-11-21T19:41:02.871Z,22.20
2022-11-21T19:56:04.342Z,22.20
2022-11-21T20:11:05.821Z,22.30
2022-11-21T20:26:07.276Z,22.30
2022-11-21T20:41:08.728Z,22.40
2022-11-21T20:56:10.193Z,22.40
2022-11-21T21:11:30.624Z,22.30
2022-11-21T21:26:38.576Z,22.30
2022-11-21T21:41:43.150Z,22.30
2022-11-21T21:56:44.654Z,22.30
2022-11-21T22:11:46.101Z,22.30
2022-11-21T22:26:47.558Z,22.30
2022-11-21T22:41:49.026Z,22.30
2022-11-21T22:56:50.485Z,22.30
2022-11-21T23:11:51.960Z,22.20
2022-11-21T23:26:53.425Z,22.20
2022-11-21T23:41:54.872Z,22.20
2022-11-21T23:56:56.346Z,22.20
